createdAt,value
2022-09-18T00:00:05.901Z,21.92
2022-09-18T00:02:17.450Z,19.98
2022-09-18T00:04:21.865Z,19.50
2022-09-18T00:06:28.401Z,23.73
2022-09-18T00:08:33.225Z,26.48
2022-09-18T00:10:42.385Z,20.33
2022-09-18T00:12:48.239Z,21.83
2022-09-18T00:14:52.804Z,21.77
2022-09-18T00:16:57.124Z,22.77
2022-09-18T00:19:01.550Z,23.80
2022-09-18T00:21:07.336Z,27.45
2022-09-18T00:23:11.602Z,22.45
2022-09-18T00:25:16.169Z,20.60
2022-09-18T00:27:20.427Z,19.80
2022-09-18T00:29:26.536Z,23.67
2022-09-18T00:31:33.101Z,20.80
2022-09-18T00:33:38.035Z,23.90
2022-09-18T00:35:44.606Z,21.73
2022-09-18T00:37:49.230Z,30.20
2022-09-18T00:39:53.548Z,20.15
2022-09-18T00:41:57.966Z,18.10
2022-09-18T00:44:36.116Z,18.92
2022-09-18T00:46:41.515Z,18.70
2022-09-18T00:48:51.418Z,15.82
2022-09-18T00:50:55.768Z,20.40
2022-09-18T00:53:03.035Z,18.38
2022-09-18T00:55:11.691Z,17.20
2022-09-18T00:57:22.597Z,18.23
2022-09-18T00:59:29.933Z,17.17
2022-09-18T01:01:35.832Z,14.70
2022-09-18T01:03:40.559Z,15.75
2022-09-18T01:05:58.171Z,18.50
2022-09-18T01:08:18.138Z,16.67
2022-09-18T01:12:44.655Z,20.05
2022-09-18T01:14:57.028Z,20.77
2022-09-18T01:17:13.218Z,19.15
2022-09-18T01:19:38.085Z,17.70
2022-09-18T01:21:50.334Z,15.35
2022-09-18T01:24:45.547Z,15.98
2022-09-18T01:26:55.954Z,15.98
2022-09-18T01:29:08.424Z,15.35
2022-09-18T01:31:18.861Z,12.10
2022-09-18T01:33:33.671Z,12.70
2022-09-18T01:35:42.424Z,23.52
2022-09-18T01:37:54.455Z,9.43
2022-09-18T01:40:04.850Z,12.80
2022-09-18T01:42:11.715Z,11.70
2022-09-18T01:44:21.436Z,10.65
2022-09-18T01:46:26.661Z,12.35
2022-09-18T01:48:33.757Z,13.38
2022-09-18T01:50:47.574Z,13.02
2022-09-18T01:52:56.742Z,13.43
2022-09-18T01:55:06.195Z,14.40
2022-09-18T01:57:15.303Z,12.63
2022-09-18T01:59:26.089Z,16.90
2022-09-18T02:01:42.015Z,17.08
2022-09-18T02:03:50.759Z,13.75
2022-09-18T02:05:58.124Z,11.70
2022-09-18T02:08:11.049Z,13.40
2022-09-18T02:10:15.981Z,14.98
2022-09-18T02:12:24.843Z,11.15
2022-09-18T02:14:37.221Z,12.00
2022-09-18T02:17:04.462Z,10.30
2022-09-18T02:19:17.429Z,6.70
2022-09-18T02:21:27.060Z,7.28
2022-09-18T02:23:34.087Z,12.40
2022-09-18T02:25:43.992Z,7.82
2022-09-18T02:27:50.951Z,8.18
2022-09-18T02:29:57.954Z,11.05
2022-09-18T02:34:10.932Z,3.05
2022-09-18T02:36:48.022Z,6.38
2022-09-18T02:39:06.550Z,3.55
2022-09-18T02:41:22.083Z,2.05
2022-09-18T02:43:42.065Z,12.52
2022-09-18T02:45:55.286Z,2.58
2022-09-18T02:48:17.554Z,4.07
2022-09-18T02:50:31.508Z,6.43
2022-09-18T02:52:43.240Z,19.58
2022-09-18T02:54:55.019Z,8.23
2022-09-18T02:57:05.568Z,14.98
2022-09-18T02:59:16.297Z,3.03
2022-09-18T03:01:30.770Z,4.40
2022-09-18T03:03:39.730Z,6.50
2022-09-18T03:05:47.140Z,4.63
2022-09-18T03:07:52.072Z,11.05
2022-09-18T03:09:56.941Z,15.85
2022-09-18T03:12:02.165Z,4.30
2022-09-18T03:14:12.461Z,1.50
2022-09-18T03:16:17.683Z,1.30
2022-09-18T03:18:23.561Z,9.57
2022-09-18T03:20:28.022Z,1.98
2022-09-18T03:22:32.584Z,1.02
2022-09-18T03:24:36.908Z,3.80
2022-09-18T03:26:42.897Z,7.38
2022-09-18T03:28:47.999Z,2.88
2022-09-18T03:30:52.417Z,4.03
2022-09-18T03:32:58.364Z,9.25
2022-09-18T03:35:08.220Z,5.15
2022-09-18T03:37:12.635Z,10.90
2022-09-18T03:39:18.667Z,5.65
2022-09-18T03:41:24.312Z,1.67
2022-09-18T03:43:28.871Z,2.90
2022-09-18T03:45:33.058Z,6.60
2022-09-18T03:47:39.486Z,1.83
2022-09-18T03:49:45.854Z,4.07
2022-09-18T03:51:52.723Z,5.15
2022-09-18T03:53:57.620Z,0.70
2022-09-18T03:56:22.049Z,6.82
2022-09-18T03:58:49.665Z,2.08
2022-09-18T04:01:14.703Z,4.75
2022-09-18T04:03:37.653Z,4.20
2022-09-18T04:06:17.307Z,0.60
2022-09-18T04:08:53.314Z,3.95
2022-09-18T04:11:14.565Z,0.77
2022-09-18T04:13:19.533Z,1.58
2022-09-18T04:15:24.478Z,5.88
2022-09-18T04:17:29.040Z,5.18
2022-09-18T04:19:34.924Z,8.80
2022-09-18T04:21:39.442Z,4.97
2022-09-18T04:23:43.886Z,2.13
2022-09-18T04:25:52.221Z,5.45
2022-09-18T04:27:56.582Z,8.45
2022-09-18T04:30:01.014Z,3.20
2022-09-18T04:32:08.376Z,3.28
2022-09-18T04:34:13.172Z,1.88
2022-09-18T04:36:17.875Z,2.20
2022-09-18T04:38:28.010Z,1.60
2022-09-18T04:40:33.360Z,3.15
2022-09-18T04:42:39.258Z,0.82
2022-09-18T04:44:43.765Z,7.18
2022-09-18T04:46:50.055Z,1.45
2022-09-18T04:48:55.076Z,3.80
2022-09-18T04:51:02.492Z,7.25
2022-09-18T04:53:10.726Z,3.95
2022-09-18T04:55:15.680Z,4.22
2022-09-18T04:57:20.404Z,2.13
2022-09-18T04:59:26.313Z,4.97
2022-09-18T05:01:34.698Z,4.15
2022-09-18T05:03:45.680Z,1.73
2022-09-18T05:05:58.560Z,5.40
2022-09-18T05:08:03.592Z,4.57
2022-09-18T05:10:10.649Z,5.45
2022-09-18T05:12:16.699Z,4.50
2022-09-18T05:14:22.414Z,4.47
2022-09-18T05:16:31.278Z,2.55
2022-09-18T05:18:54.366Z,7.07
2022-09-18T05:21:02.695Z,5.68
2022-09-18T05:25:14.037Z,8.05
2022-09-18T05:27:20.630Z,2.05
2022-09-18T05:29:27.951Z,2.28
2022-09-18T05:31:42.145Z,3.85
2022-09-18T05:33:46.760Z,4.72
2022-09-18T05:35:56.112Z,3.80
2022-09-18T05:38:00.576Z,3.40
2022-09-18T05:40:05.570Z,3.72
2022-09-18T05:42:10.169Z,1.23
2022-09-18T05:44:14.962Z,5.38
2022-09-18T05:46:19.618Z,6.47
2022-09-18T05:48:33.359Z,13.60
2022-09-18T05:50:38.361Z,5.85
2022-09-18T05:52:44.837Z,9.15
2022-09-18T05:54:49.733Z,2.25
2022-09-18T05:56:55.241Z,15.13
2022-09-18T05:59:00.062Z,8.68
2022-09-18T06:01:06.772Z,9.95
2022-09-18T06:03:32.917Z,4.88
2022-09-18T06:05:39.368Z,2.70
2022-09-18T06:07:43.946Z,14.63
2022-09-18T06:09:48.843Z,4.00
2022-09-18T06:11:53.392Z,6.10
2022-09-18T06:13:57.734Z,5.15
2022-09-18T06:16:02.682Z,12.50
2022-09-18T06:18:30.142Z,4.88
2022-09-18T06:20:38.457Z,5.15
2022-09-18T06:22:42.896Z,5.63
2022-09-18T06:24:47.654Z,7.40
2022-09-18T06:26:55.927Z,6.05
2022-09-18T06:29:00.275Z,5.78
2022-09-18T06:31:09.552Z,6.50
2022-09-18T06:33:43.558Z,4.20
2022-09-18T06:35:49.681Z,9.45
2022-09-18T06:38:04.066Z,6.72
2022-09-18T06:40:24.118Z,4.70
2022-09-18T06:43:03.059Z,4.47
2022-09-18T06:45:33.808Z,5.18
2022-09-18T06:47:38.795Z,3.13
2022-09-18T06:49:46.204Z,11.57
2022-09-18T06:51:52.122Z,5.10
2022-09-18T06:53:56.536Z,5.43
2022-09-18T06:56:03.456Z,8.30
2022-09-18T06:58:11.636Z,8.20
2022-09-18T07:00:16.546Z,8.07
2022-09-18T07:02:20.967Z,7.88
2022-09-18T07:04:54.261Z,11.32
2022-09-18T07:07:00.274Z,9.50
2022-09-18T07:09:06.197Z,11.50
2022-09-18T07:11:48.903Z,17.45
2022-09-18T07:13:54.391Z,11.27
2022-09-18T07:15:59.559Z,11.30
2022-09-18T07:18:06.663Z,6.18
2022-09-18T07:20:12.174Z,8.65
2022-09-18T07:22:21.655Z,13.68
2022-09-18T07:24:26.099Z,4.55
2022-09-18T07:26:31.752Z,10.05
2022-09-18T07:28:36.200Z,12.40
2022-09-18T07:30:52.883Z,11.65
2022-09-18T07:32:58.006Z,15.00
2022-09-18T07:35:07.552Z,10.35
2022-09-18T07:37:11.915Z,7.85
2022-09-18T07:39:19.606Z,11.68
2022-09-18T07:41:45.304Z,6.80
2022-09-18T07:43:51.607Z,9.13
2022-09-18T07:45:56.159Z,9.45
2022-09-18T07:48:03.177Z,18.45
2022-09-18T07:50:15.998Z,6.68
2022-09-18T07:52:21.653Z,5.03
2022-09-18T07:54:30.612Z,3.17
2022-09-18T07:56:46.055Z,15.32
2022-09-18T07:58:54.929Z,10.50
2022-09-18T08:01:04.497Z,5.13
2022-09-18T08:03:12.661Z,4.93
2022-09-18T08:05:36.315Z,4.32
2022-09-18T08:07:40.839Z,4.22
2022-09-18T08:10:13.423Z,5.68
2022-09-18T08:12:29.856Z,11.77
2022-09-18T08:14:52.821Z,5.63
2022-09-18T08:17:13.310Z,4.57
2022-09-18T08:19:31.976Z,8.88
2022-09-18T08:21:43.199Z,4.65
2022-09-18T08:23:50.629Z,6.70
2022-09-18T08:25:57.499Z,6.60
2022-09-18T08:28:03.919Z,4.00
2022-09-18T08:30:17.734Z,7.15
2022-09-18T08:32:24.588Z,9.38
2022-09-18T08:34:29.984Z,10.77
2022-09-18T08:36:35.464Z,10.73
2022-09-18T08:38:47.977Z,4.35
2022-09-18T08:41:31.251Z,3.83
2022-09-18T08:43:52.679Z,7.22
2022-09-18T08:46:02.208Z,17.08
2022-09-18T08:48:15.169Z,8.10
2022-09-18T08:50:25.140Z,12.73
2022-09-18T08:52:34.579Z,4.95
2022-09-18T08:54:52.295Z,11.77
2022-09-18T08:57:19.413Z,5.60
2022-09-18T08:59:42.609Z,8.60
2022-09-18T09:01:56.812Z,7.63
2022-09-18T09:04:06.909Z,4.05
2022-09-18T09:06:25.583Z,3.45
2022-09-18T09:08:46.671Z,2.85
2022-09-18T09:11:00.844Z,3.35
2022-09-18T09:13:22.715Z,11.13
2022-09-18T09:15:38.894Z,10.73
2022-09-18T09:17:52.627Z,6.03
2022-09-18T09:20:07.815Z,8.13
2022-09-18T09:22:19.121Z,7.25
2022-09-18T09:24:33.691Z,8.43
2022-09-18T09:27:18.058Z,8.63
2022-09-18T09:30:04.003Z,17.58
2022-09-18T09:32:44.355Z,8.27
2022-09-18T09:35:19.080Z,7.80
2022-09-18T09:37:50.415Z,11.20
2022-09-18T09:40:00.417Z,8.05
2022-09-18T09:42:14.316Z,8.73
2022-09-18T09:44:38.575Z,10.32
2022-09-18T09:47:00.358Z,1.98
2022-09-18T09:49:11.486Z,17.13
2022-09-18T09:51:23.638Z,18.13
2022-09-18T09:53:29.142Z,17.50
2022-09-18T09:55:41.714Z,5.07
2022-09-18T09:57:58.141Z,7.50
2022-09-18T10:00:14.768Z,8.18
2022-09-18T10:02:57.660Z,4.00
2022-09-18T10:05:18.637Z,23.75
2022-09-18T10:07:28.618Z,7.00
2022-09-18T10:11:43.976Z,3.38
2022-09-18T10:13:53.086Z,4.70
2022-09-18T10:16:03.086Z,6.97
2022-09-18T10:18:16.687Z,3.85
2022-09-18T10:20:27.705Z,2.40
2022-09-18T10:22:34.961Z,7.72
2022-09-18T10:24:48.090Z,5.82
2022-09-18T10:26:58.593Z,3.20
2022-09-18T10:29:03.158Z,2.92
2022-09-18T10:31:13.726Z,4.63
2022-09-18T10:33:41.786Z,3.00
2022-09-18T10:35:55.658Z,9.53
2022-09-18T10:38:00.529Z,6.50
2022-09-18T10:40:29.040Z,2.88
2022-09-18T10:42:36.138Z,6.00
2022-09-18T10:45:05.111Z,4.57
2022-09-18T10:47:22.179Z,4.88
2022-09-18T10:49:32.125Z,5.63
2022-09-18T10:51:36.699Z,8.48
2022-09-18T10:53:42.706Z,3.95
2022-09-18T10:56:06.215Z,2.92
2022-09-18T10:58:15.469Z,6.25
2022-09-18T11:00:43.275Z,1.35
2022-09-18T11:02:50.904Z,5.40
2022-09-18T11:04:57.291Z,3.30
2022-09-18T11:07:08.346Z,11.40
2022-09-18T11:09:19.153Z,3.35
2022-09-18T11:11:28.017Z,2.72
2022-09-18T11:13:35.832Z,4.13
2022-09-18T11:15:53.141Z,3.15
2022-09-18T11:18:00.123Z,3.83
2022-09-18T11:20:08.125Z,3.60
2022-09-18T11:22:41.745Z,3.38
2022-09-18T11:25:19.406Z,1.25
2022-09-18T11:27:27.998Z,2.83
2022-09-18T11:29:34.599Z,4.90
2022-09-18T11:31:43.547Z,4.38
2022-09-18T11:33:52.458Z,2.42
2022-09-18T11:36:08.890Z,11.93
2022-09-18T11:38:20.185Z,3.22
2022-09-18T11:40:30.083Z,3.65
2022-09-18T11:42:35.002Z,0.98
2022-09-18T11:44:40.351Z,3.25
2022-09-18T11:46:53.704Z,4.68
2022-09-18T11:49:04.834Z,0.63
2022-09-18T11:51:17.801Z,3.83
2022-09-18T11:53:26.780Z,9.50
2022-09-18T11:55:36.470Z,4.18
2022-09-18T11:57:44.671Z,28.17
2022-09-18T11:59:55.643Z,35.03
2022-09-18T12:02:06.926Z,30.90
2022-09-18T12:04:16.928Z,15.70
2022-09-18T12:06:32.432Z,3.50
2022-09-18T12:08:44.270Z,1.08
2022-09-18T12:11:03.761Z,3.85
2022-09-18T12:13:24.038Z,1.20
2022-09-18T12:15:35.056Z,1.52
2022-09-18T12:19:51.504Z,0.80
2022-09-18T12:22:04.943Z,1.75
2022-09-18T12:24:14.445Z,3.80
2022-09-18T12:26:36.468Z,16.50
2022-09-18T12:28:49.916Z,3.53
2022-09-18T12:31:01.207Z,4.70
2022-09-18T12:33:34.239Z,6.28
2022-09-18T12:35:52.416Z,2.85
2022-09-18T12:38:10.776Z,1.05
2022-09-18T12:40:37.514Z,2.72
2022-09-18T12:42:54.466Z,3.40
2022-09-18T12:45:25.347Z,2.60
2022-09-18T12:47:42.748Z,4.35
2022-09-18T12:50:04.444Z,0.55
2022-09-18T12:52:20.336Z,2.63
2022-09-18T12:54:42.528Z,1.90
2022-09-18T12:57:05.881Z,4.43
2022-09-18T12:59:30.149Z,2.28
2022-09-18T13:01:39.652Z,1.38
2022-09-18T13:03:45.174Z,0.22
2022-09-18T13:05:55.121Z,2.45
2022-09-18T13:10:16.158Z,1.63
2022-09-18T13:12:26.698Z,0.65
2022-09-18T13:14:37.920Z,4.13
2022-09-18T13:16:50.175Z,4.80
2022-09-18T13:18:59.633Z,1.52
2022-09-18T13:21:10.605Z,3.65
2022-09-18T13:23:20.640Z,2.35
2022-09-18T13:27:33.924Z,2.42
2022-09-18T13:29:59.904Z,0.50
2022-09-18T13:32:04.304Z,1.35
2022-09-18T13:34:17.942Z,2.38
2022-09-18T13:36:28.773Z,4.68
2022-09-18T13:38:35.581Z,0.85
2022-09-18T13:40:44.659Z,5.75
2022-09-18T13:42:49.409Z,5.73
2022-09-18T13:44:53.968Z,10.35
2022-09-18T13:47:12.237Z,2.13
2022-09-18T13:49:27.457Z,1.23
2022-09-18T13:51:36.367Z,1.67
2022-09-18T13:53:42.882Z,6.82
2022-09-18T13:55:52.578Z,4.50
2022-09-18T13:58:38.658Z,4.45
2022-09-18T14:00:43.364Z,3.08
2022-09-18T14:02:48.182Z,0.43
2022-09-18T14:05:27.664Z,3.83
2022-09-18T14:08:08.036Z,7.18
2022-09-18T14:10:33.741Z,1.08
2022-09-18T14:12:39.836Z,4.53
2022-09-18T14:14:45.479Z,2.80
2022-09-18T14:16:51.173Z,4.10
2022-09-18T14:18:59.798Z,2.05
2022-09-18T14:21:24.582Z,2.47
2022-09-18T14:24:01.993Z,3.67
2022-09-18T14:26:10.607Z,1.60
2022-09-18T14:28:21.405Z,1.33
2022-09-18T14:30:27.478Z,4.88
2022-09-18T14:32:33.898Z,1.60
2022-09-18T14:34:40.956Z,1.40
2022-09-18T14:36:46.815Z,4.20
2022-09-18T14:38:51.396Z,3.85
2022-09-18T14:41:01.133Z,3.63
2022-09-18T14:43:18.308Z,1.65
2022-09-18T14:45:28.674Z,4.38
2022-09-18T14:47:33.076Z,1.38
2022-09-18T14:49:42.933Z,1.40
2022-09-18T14:52:03.263Z,2.17
2022-09-18T14:54:21.741Z,3.70
2022-09-18T14:56:29.556Z,2.45
2022-09-18T14:58:39.209Z,5.70
2022-09-18T15:00:45.252Z,1.13
2022-09-18T15:02:52.172Z,4.05
2022-09-18T15:04:56.705Z,7.90
2022-09-18T15:07:01.097Z,5.93
2022-09-18T15:09:08.141Z,2.47
2022-09-18T15:11:15.085Z,4.32
2022-09-18T15:13:21.952Z,3.00
2022-09-18T15:15:43.203Z,4.25
2022-09-18T15:17:53.904Z,1.33
2022-09-18T15:20:00.837Z,2.55
2022-09-18T15:22:05.056Z,7.53
2022-09-18T15:24:17.270Z,2.97
2022-09-18T15:26:26.111Z,1.85
2022-09-18T15:28:33.599Z,6.70
2022-09-18T15:30:40.015Z,5.57
2022-09-18T15:32:47.359Z,1.98
2022-09-18T15:34:53.683Z,3.78
2022-09-18T15:37:01.593Z,5.40
2022-09-18T15:39:07.898Z,3.38
2022-09-18T15:41:32.305Z,4.07
2022-09-18T15:43:43.851Z,5.45
2022-09-18T15:46:03.289Z,3.15
2022-09-18T15:48:37.620Z,2.63
2022-09-18T15:50:43.266Z,1.85
2022-09-18T15:53:02.434Z,6.30
2022-09-18T15:55:23.992Z,5.15
2022-09-18T15:57:28.378Z,2.33
2022-09-18T15:59:35.867Z,4.18
2022-09-18T16:01:48.702Z,3.05
2022-09-18T16:04:05.530Z,3.60
2022-09-18T16:06:24.079Z,3.15
2022-09-18T16:08:31.043Z,3.85
2022-09-18T16:10:52.887Z,2.53
2022-09-18T16:12:57.150Z,3.63
2022-09-18T16:15:04.113Z,2.65
2022-09-18T16:17:39.131Z,4.22
2022-09-18T16:19:45.254Z,3.05
2022-09-18T16:21:49.760Z,3.75
2022-09-18T16:23:56.507Z,1.50
2022-09-18T16:26:13.177Z,2.53
2022-09-18T16:28:27.179Z,4.05
2022-09-18T16:30:31.519Z,1.80
2022-09-18T16:32:36.029Z,1.42
2022-09-18T16:34:41.931Z,3.83
2022-09-18T16:36:47.569Z,1.55
2022-09-18T16:38:52.133Z,6.93
2022-09-18T16:40:56.611Z,7.78
2022-09-18T16:43:00.918Z,3.35
2022-09-18T16:45:05.757Z,5.25
2022-09-18T16:47:12.635Z,2.60
2022-09-18T16:49:20.503Z,2.58
2022-09-18T16:51:26.314Z,1.80
2022-09-18T16:53:30.802Z,1.33
2022-09-18T16:55:36.898Z,3.05
2022-09-18T16:57:41.335Z,2.90
2022-09-18T16:59:46.166Z,2.75
2022-09-18T17:02:03.269Z,3.70
2022-09-18T17:04:08.111Z,6.10
2022-09-18T17:06:14.146Z,2.22
2022-09-18T17:08:23.012Z,4.33
2022-09-18T17:10:27.522Z,2.95
2022-09-18T17:12:31.979Z,3.38
2022-09-18T17:14:36.746Z,1.15
2022-09-18T17:16:44.946Z,2.08
2022-09-18T17:18:49.868Z,1.42
2022-09-18T17:20:54.514Z,5.28
2022-09-18T17:22:59.210Z,1.58
2022-09-18T17:25:05.935Z,3.78
2022-09-18T17:27:10.190Z,4.25
2022-09-18T17:29:14.556Z,2.53
2022-09-18T17:31:20.296Z,2.63
2022-09-18T17:33:25.329Z,1.05
2022-09-18T17:35:29.781Z,1.15
2022-09-18T17:37:34.381Z,2.47
2022-09-18T17:39:38.735Z,2.50
2022-09-18T17:41:45.976Z,1.85
2022-09-18T17:43:53.270Z,2.97
2022-09-18T17:45:58.580Z,3.42
2022-09-18T17:48:03.278Z,1.60
2022-09-18T17:50:08.630Z,2.53
2022-09-18T17:52:13.074Z,3.67
2022-09-18T17:54:17.378Z,3.78
2022-09-18T17:56:21.987Z,4.30
2022-09-18T17:58:28.335Z,6.50
2022-09-18T18:00:32.764Z,1.80
2022-09-18T18:02:37.741Z,1.50
2022-09-18T18:04:42.136Z,2.22
2022-09-18T18:06:49.380Z,3.75
2022-09-18T18:08:54.108Z,4.40
2022-09-18T18:11:04.606Z,4.53
2022-09-18T18:13:09.103Z,2.80
2022-09-18T18:15:15.069Z,4.03
2022-09-18T18:17:20.370Z,4.78
2022-09-18T18:19:27.472Z,2.80
2022-09-18T18:21:35.746Z,1.08
2022-09-18T18:23:40.373Z,1.38
2022-09-18T18:25:44.864Z,0.70
2022-09-18T18:27:49.470Z,3.67
2022-09-18T18:29:55.773Z,3.47
2022-09-18T18:32:02.071Z,1.58
2022-09-18T18:34:09.433Z,4.03
2022-09-18T18:36:16.226Z,2.55
2022-09-18T18:38:21.117Z,3.97
2022-09-18T18:40:27.204Z,2.88
2022-09-18T18:42:32.761Z,5.40
2022-09-18T18:44:37.426Z,4.43
2022-09-18T18:46:42.924Z,2.28
2022-09-18T18:48:49.205Z,3.65
2022-09-18T18:50:58.250Z,2.42
2022-09-18T18:53:02.613Z,2.47
2022-09-18T18:55:07.645Z,2.90
2022-09-18T18:57:11.926Z,1.77
2022-09-18T18:59:17.809Z,2.35
2022-09-18T19:01:22.182Z,1.60
2022-09-18T19:03:27.938Z,5.95
2022-09-18T19:05:33.685Z,5.10
2022-09-18T19:07:38.199Z,3.55
2022-09-18T19:09:42.588Z,2.72
2022-09-18T19:11:48.476Z,3.00
2022-09-18T19:13:54.375Z,1.80
2022-09-18T19:15:58.764Z,3.35
2022-09-18T19:18:03.272Z,3.92
2022-09-18T19:20:08.853Z,3.78
2022-09-18T19:22:19.035Z,3.40
2022-09-18T19:24:23.841Z,5.25
2022-09-18T19:26:30.439Z,4.05
2022-09-18T19:28:34.805Z,1.42
2022-09-18T19:30:41.433Z,2.75
2022-09-18T19:32:45.724Z,3.47
2022-09-18T19:34:49.942Z,5.53
2022-09-18T19:36:54.502Z,2.67
2022-09-18T19:39:01.971Z,1.20
2022-09-18T19:41:12.486Z,2.55
2022-09-18T19:43:30.290Z,2.20
2022-09-18T19:45:37.540Z,1.42
2022-09-18T19:47:46.581Z,2.50
2022-09-18T19:49:51.649Z,1.47
2022-09-18T19:51:55.936Z,4.05
2022-09-18T19:54:02.077Z,2.47
2022-09-18T19:56:22.577Z,3.63
2022-09-18T19:58:32.315Z,3.35
2022-09-18T20:00:40.038Z,1.50
2022-09-18T20:02:44.872Z,2.33
2022-09-18T20:04:49.447Z,4.75
2022-09-18T20:06:53.780Z,1.92
2022-09-18T20:08:58.141Z,3.58
2022-09-18T20:11:04.085Z,2.63
2022-09-18T20:13:10.004Z,0.85
2022-09-18T20:15:14.439Z,2.40
2022-09-18T20:17:18.710Z,1.00
2022-09-18T20:19:24.174Z,1.50
2022-09-18T20:21:28.448Z,2.00
2022-09-18T20:23:32.902Z,2.92
2022-09-18T20:25:37.242Z,4.22
2022-09-18T20:27:43.898Z,2.75
2022-09-18T20:29:48.496Z,6.75
2022-09-18T20:31:53.039Z,1.55
2022-09-18T20:33:57.932Z,1.58
2022-09-18T20:36:03.305Z,2.50
2022-09-18T20:38:07.837Z,1.63
2022-09-18T20:40:12.990Z,2.35
2022-09-18T20:42:17.345Z,2.95
2022-09-18T20:44:23.089Z,1.33
2022-09-18T20:46:27.982Z,1.80
2022-09-18T20:48:35.409Z,2.72
2022-09-18T20:50:40.109Z,5.05
2022-09-18T20:52:45.612Z,3.63
2022-09-18T20:54:52.931Z,2.75
2022-09-18T20:56:57.928Z,2.25
2022-09-18T20:59:05.056Z,2.17
2022-09-18T21:01:14.387Z,1.70
2022-09-18T21:03:20.276Z,2.80
2022-09-18T21:05:24.635Z,2.53
2022-09-18T21:07:30.384Z,2.70
2022-09-18T21:09:34.856Z,2.90
2022-09-18T21:11:41.045Z,2.20
2022-09-18T21:13:47.609Z,2.20
2022-09-18T21:15:52.077Z,1.55
2022-09-18T21:17:58.241Z,3.83
2022-09-18T21:20:03.289Z,1.88
2022-09-18T21:22:07.934Z,2.78
2022-09-18T21:24:12.467Z,3.65
2022-09-18T21:26:17.723Z,2.72
2022-09-18T21:28:22.001Z,3.63
2022-09-18T21:30:27.579Z,1.67
2022-09-18T21:32:32.049Z,2.50
2022-09-18T21:34:38.196Z,2.47
2022-09-18T21:36:43.543Z,1.25
2022-09-18T21:38:50.522Z,2.15
2022-09-18T21:40:55.347Z,3.03
2022-09-18T21:43:00.316Z,1.45
2022-09-18T21:45:04.819Z,1.17
2022-09-18T21:47:10.887Z,4.63
2022-09-18T21:49:16.481Z,10.02
2022-09-18T21:51:22.810Z,3.55
2022-09-18T21:53:27.203Z,2.78
2022-09-18T21:55:38.309Z,2.58
2022-09-18T21:57:42.674Z,1.55
2022-09-18T21:59:48.649Z,2.88
2022-09-18T22:01:55.381Z,4.70
2022-09-18T22:04:02.390Z,2.08
2022-09-18T22:06:07.485Z,3.03
2022-09-18T22:08:13.172Z,2.28
2022-09-18T22:10:17.578Z,1.40
2022-09-18T22:12:21.933Z,6.03
2022-09-18T22:14:28.864Z,3.47
2022-09-18T22:16:34.827Z,1.38
2022-09-18T22:18:40.741Z,1.92
2022-09-18T22:20:44.962Z,2.58
2022-09-18T22:22:49.231Z,2.75
2022-09-18T22:24:55.578Z,2.03
2022-09-18T22:27:02.624Z,5.05
2022-09-18T22:29:08.507Z,3.20
2022-09-18T22:31:12.899Z,1.75
2022-09-18T22:33:17.218Z,2.58
2022-09-18T22:35:21.434Z,3.60
2022-09-18T22:37:25.717Z,3.80
2022-09-18T22:39:30.914Z,2.00
2022-09-18T22:41:38.109Z,2.72
2022-09-18T22:43:42.826Z,2.10
2022-09-18T22:45:47.222Z,4.05
2022-09-18T22:47:51.627Z,1.55
2022-09-18T22:49:55.953Z,3.70
2022-09-18T22:52:00.442Z,3.92
2022-09-18T22:54:07.862Z,1.27
2022-09-18T22:56:13.949Z,0.88
2022-09-18T22:58:19.892Z,3.33
2022-09-18T23:00:24.246Z,2.40
2022-09-18T23:02:28.750Z,1.55
2022-09-18T23:04:34.764Z,3.42
2022-09-18T23:06:39.139Z,2.33
2022-09-18T23:08:44.681Z,2.58
2022-09-18T23:10:49.573Z,3.60
2022-09-18T23:12:53.818Z,1.10
2022-09-18T23:14:59.895Z,1.45
2022-09-18T23:17:04.228Z,3.38
2022-09-18T23:19:14.521Z,3.10
2022-09-18T23:21:19.067Z,1.98
2022-09-18T23:23:24.056Z,3.92
2022-09-18T23:25:28.556Z,2.95
2022-09-18T23:27:32.892Z,1.83
2022-09-18T23:29:38.236Z,4.18
2022-09-18T23:31:46.881Z,1.42
2022-09-18T23:33:53.191Z,1.48
2022-09-18T23:36:05.147Z,4.20
2022-09-18T23:38:09.431Z,2.35
2022-09-18T23:40:13.873Z,5.82
2022-09-18T23:42:18.202Z,1.40
2022-09-18T23:44:23.797Z,6.97
2022-09-18T23:46:28.248Z,0.98
2022-09-18T23:48:34.141Z,1.30
2022-09-18T23:50:39.148Z,2.28
2022-09-18T23:52:44.949Z,1.40
2022-09-18T23:54:49.218Z,1.02
2022-09-18T23:56:53.998Z,4.43
2022-09-18T23:59:00.070Z,5.88
